createdAt,value
2023-07-19T00:02:05.424Z,100956.16
2023-07-19T00:04:32.917Z,100957.50
2023-07-19T00:07:00.292Z,100966.50
2023-07-19T00:09:27.704Z,100962.47
2023-07-19T00:11:55.046Z,100958.50
2023-07-19T00:14:22.546Z,100954.59
2023-07-19T00:16:49.805Z,100966.59
2023-07-19T00:19:20.649Z,100962.66
2023-07-19T00:21:49.984Z,100963.03
2023-07-19T00:24:17.839Z,100963.66
2023-07-19T00:26:46.541Z,100955.25
2023-07-19T00:29:13.997Z,100960.66
2023-07-19T00:31:41.314Z,100961.81
2023-07-19T00:34:08.785Z,100953.88
2023-07-19T00:36:37.855Z,100968.59
2023-07-19T00:39:05.460Z,100962.94
2023-07-19T00:41:32.735Z,100960.94
2023-07-19T00:44:00.171Z,100955.91
2023-07-19T00:46:28.937Z,100961.53
2023-07-19T00:48:57.450Z,100966.50
2023-07-19T00:51:25.070Z,100956.66
2023-07-19T00:53:53.007Z,100966.28
2023-07-19T00:56:21.788Z,100959.25
2023-07-19T00:58:51.431Z,100959.84
2023-07-19T01:01:21.820Z,100967.47
2023-07-19T01:03:49.522Z,100966.31
2023-07-19T01:06:19.029Z,100955.31
2023-07-19T01:08:48.015Z,100966.94
2023-07-19T01:11:15.367Z,100961.34
2023-07-19T01:13:56.145Z,100961.56
2023-07-19T01:16:25.464Z,100966.16
2023-07-19T01:18:52.727Z,100958.34
2023-07-19T01:21:23.351Z,100961.34
2023-07-19T01:23:51.692Z,100957.78
2023-07-19T01:26:19.162Z,100953.00
2023-07-19T01:28:46.597Z,100955.19
2023-07-19T01:31:16.000Z,100952.28
2023-07-19T01:33:43.354Z,100960.88
2023-07-19T01:36:10.605Z,100956.50
2023-07-19T01:38:39.016Z,100964.03
2023-07-19T01:41:06.397Z,100961.63
2023-07-19T01:43:34.079Z,100964.06
2023-07-19T01:46:01.491Z,100972.06
2023-07-19T01:48:29.531Z,100966.63
2023-07-19T01:50:56.867Z,100971.16
2023-07-19T01:53:24.183Z,100976.34
2023-07-19T01:55:51.464Z,100976.81
2023-07-19T01:58:18.758Z,100974.28
2023-07-19T02:00:46.163Z,100979.66
2023-07-19T02:03:13.713Z,100983.94
2023-07-19T02:05:42.268Z,100989.56
2023-07-19T02:08:09.465Z,100988.91
2023-07-19T02:10:36.992Z,100988.03
2023-07-19T02:13:04.357Z,100977.84
2023-07-19T02:15:31.687Z,100990.19
2023-07-19T02:17:59.146Z,100984.13
2023-07-19T02:20:26.459Z,100978.59
2023-07-19T02:22:53.897Z,100985.59
2023-07-19T02:25:22.257Z,100981.84
2023-07-19T02:27:49.614Z,100986.72
2023-07-19T02:30:17.018Z,100984.06
2023-07-19T02:32:44.504Z,100979.34
2023-07-19T02:35:11.812Z,100982.34
2023-07-19T02:37:39.350Z,100982.44
2023-07-19T02:40:07.552Z,100977.06
2023-07-19T02:42:34.843Z,100987.34
2023-07-19T02:45:02.473Z,100989.78
2023-07-19T02:47:31.021Z,101003.91
2023-07-19T02:49:58.526Z,101005.88
2023-07-19T02:52:25.784Z,101001.16
2023-07-19T02:54:53.528Z,101009.31
2023-07-19T02:57:20.839Z,101004.72
2023-07-19T02:59:48.212Z,101014.16
2023-07-19T03:02:15.575Z,101010.47
2023-07-19T03:04:43.027Z,101008.34
2023-07-19T03:07:10.564Z,101014.16
2023-07-19T03:09:38.116Z,101017.47
2023-07-19T03:12:05.835Z,101022.84
2023-07-19T03:14:33.130Z,101018.78
2023-07-19T03:17:00.969Z,101025.41
2023-07-19T03:19:28.359Z,101020.34
2023-07-19T03:21:55.693Z,101027.56
2023-07-19T03:24:23.079Z,101025.88
2023-07-19T03:26:50.641Z,101039.38
2023-07-19T03:29:17.954Z,101028.47
2023-07-19T03:31:46.789Z,101030.19
2023-07-19T03:34:15.176Z,101035.41
2023-07-19T03:36:42.612Z,101034.72
2023-07-19T03:39:09.862Z,101044.69
2023-07-19T03:41:37.809Z,101049.84
2023-07-19T03:44:05.402Z,101051.78
2023-07-19T03:46:32.813Z,101052.38
2023-07-19T03:49:00.785Z,101050.75
2023-07-19T03:51:28.432Z,101052.91
2023-07-19T03:53:56.780Z,101061.50
2023-07-19T03:56:24.791Z,101064.88
2023-07-19T03:58:53.280Z,101067.16
2023-07-19T04:01:21.153Z,101066.16
2023-07-19T04:03:50.507Z,101071.19
2023-07-19T04:06:18.763Z,101072.91
2023-07-19T04:08:46.131Z,101077.69
2023-07-19T04:11:13.661Z,101072.88
2023-07-19T04:13:41.014Z,101083.44
2023-07-19T04:16:08.793Z,101079.94
2023-07-19T04:18:36.092Z,101081.25
2023-07-19T04:21:03.621Z,101089.28
2023-07-19T04:23:31.022Z,101090.31
2023-07-19T04:26:00.613Z,101085.69
2023-07-19T04:28:30.039Z,101075.88
2023-07-19T04:30:57.840Z,101080.22
2023-07-19T04:33:25.454Z,101089.28
2023-07-19T04:35:52.899Z,101083.06
2023-07-19T04:38:20.987Z,101090.56
2023-07-19T04:40:48.377Z,101085.50
2023-07-19T04:43:15.895Z,101091.09
2023-07-19T04:45:46.058Z,101096.13
2023-07-19T04:48:15.214Z,101099.66
2023-07-19T04:50:42.540Z,101105.31
2023-07-19T04:53:10.962Z,101093.59
2023-07-19T04:55:38.464Z,101106.34
2023-07-19T04:58:05.900Z,101109.44
2023-07-19T05:00:33.173Z,101103.91
2023-07-19T05:03:00.737Z,101096.91
2023-07-19T05:05:28.164Z,101105.59
2023-07-19T05:07:55.446Z,101102.75
2023-07-19T05:10:23.131Z,101101.06
2023-07-19T05:12:50.844Z,101109.38
2023-07-19T05:15:18.270Z,101110.44
2023-07-19T05:17:45.640Z,101113.34
2023-07-19T05:20:13.553Z,101110.53
2023-07-19T05:22:41.022Z,101117.13
2023-07-19T05:25:11.171Z,101114.16
2023-07-19T05:27:38.904Z,101114.28
2023-07-19T05:30:06.708Z,101112.81
2023-07-19T05:32:34.090Z,101118.41
2023-07-19T05:35:01.543Z,101127.63
2023-07-19T05:37:28.954Z,101122.16
2023-07-19T05:39:56.414Z,101114.75
2023-07-19T05:42:23.789Z,101122.53
2023-07-19T05:44:51.132Z,101114.91
2023-07-19T05:47:19.039Z,101118.16
2023-07-19T05:49:46.430Z,101114.75
2023-07-19T05:52:13.675Z,101124.88
2023-07-19T05:54:40.909Z,101120.47
2023-07-19T05:57:08.236Z,101132.69
2023-07-19T05:59:35.531Z,101144.31
2023-07-19T06:02:03.059Z,101136.66
2023-07-19T06:04:30.581Z,101135.50
2023-07-19T06:06:58.052Z,101137.31
2023-07-19T06:09:25.557Z,101143.59
2023-07-19T06:11:57.894Z,101140.44
2023-07-19T06:14:25.326Z,101137.13
2023-07-19T06:16:52.775Z,101153.34
2023-07-19T06:19:20.690Z,101153.50
2023-07-19T06:21:48.082Z,101145.53
2023-07-19T06:24:15.321Z,101154.56
2023-07-19T06:26:42.602Z,101145.97
2023-07-19T06:29:09.902Z,101152.88
2023-07-19T06:31:37.509Z,101147.66
2023-07-19T06:34:04.853Z,101133.06
2023-07-19T06:36:32.153Z,101134.94
2023-07-19T06:38:59.436Z,101129.28
2023-07-19T06:41:26.872Z,101135.84
2023-07-19T06:43:54.768Z,101131.38
2023-07-19T06:46:22.276Z,101129.97
2023-07-19T06:48:49.613Z,101130.38
2023-07-19T06:51:17.326Z,101139.94
2023-07-19T06:53:44.621Z,101150.81
2023-07-19T06:56:12.059Z,101137.56
2023-07-19T06:58:39.318Z,101140.44
2023-07-19T07:01:06.739Z,101145.69
2023-07-19T07:03:36.120Z,101151.13
2023-07-19T07:06:04.597Z,101141.72
2023-07-19T07:08:32.023Z,101131.56
2023-07-19T07:11:02.819Z,101141.72
2023-07-19T07:13:30.252Z,101140.03
2023-07-19T07:15:59.567Z,101144.19
2023-07-19T07:18:27.824Z,101156.97
2023-07-19T07:20:55.256Z,101152.66
2023-07-19T07:23:22.643Z,101149.16
2023-07-19T07:25:54.683Z,101144.16
2023-07-19T07:28:22.127Z,101151.38
2023-07-19T07:30:49.351Z,101146.91
2023-07-19T07:33:17.577Z,101147.16
2023-07-19T07:35:44.898Z,101146.97
2023-07-19T07:38:12.637Z,101164.19
2023-07-19T07:40:39.873Z,101157.22
2023-07-19T07:43:07.687Z,101152.78
2023-07-19T07:45:36.353Z,101146.28
2023-07-19T07:48:04.315Z,101148.25
2023-07-19T07:50:32.102Z,101152.63
2023-07-19T07:53:11.835Z,101154.31
2023-07-19T07:55:40.401Z,101155.34
2023-07-19T07:58:07.986Z,101153.00
2023-07-19T08:00:35.382Z,101149.16
2023-07-19T08:03:02.951Z,101143.41
2023-07-19T08:05:33.151Z,101149.47
2023-07-19T08:08:00.467Z,101147.84
2023-07-19T08:10:27.747Z,101139.97
2023-07-19T08:12:55.033Z,101165.31
2023-07-19T08:15:24.621Z,101146.69
2023-07-19T08:17:53.744Z,101154.28
2023-07-19T08:20:21.107Z,101166.56
2023-07-19T08:22:48.472Z,101153.69
2023-07-19T08:25:27.264Z,101157.22
2023-07-19T08:27:56.119Z,101166.09
2023-07-19T08:30:24.660Z,101151.25
2023-07-19T08:32:53.029Z,101146.66
2023-07-19T08:35:20.777Z,101161.91
2023-07-19T08:37:48.204Z,101147.03
2023-07-19T08:40:16.984Z,101151.06
2023-07-19T08:42:44.775Z,101154.34
2023-07-19T08:45:13.386Z,101148.94
2023-07-19T08:47:41.894Z,101156.28
2023-07-19T08:50:11.955Z,101146.28
2023-07-19T08:52:39.369Z,101142.25
2023-07-19T08:55:07.964Z,101145.25
2023-07-19T08:57:44.322Z,101138.88
2023-07-19T09:00:12.176Z,101136.81
2023-07-19T09:02:39.546Z,101139.81
2023-07-19T09:05:06.980Z,101131.31
2023-07-19T09:07:35.004Z,101137.50
2023-07-19T09:10:02.417Z,101151.38
2023-07-19T09:12:44.072Z,101143.00
2023-07-19T09:15:13.635Z,101125.97
2023-07-19T09:17:46.264Z,101138.22
2023-07-19T09:20:14.983Z,101133.97
2023-07-19T09:22:43.123Z,101140.25
2023-07-19T09:25:12.153Z,101133.63
2023-07-19T09:27:42.637Z,101138.25
2023-07-19T09:30:11.815Z,101142.06
2023-07-19T09:32:39.523Z,101131.59
2023-07-19T09:35:08.403Z,101130.84
2023-07-19T09:37:35.844Z,101136.22
2023-07-19T09:40:05.912Z,101135.44
2023-07-19T09:42:37.381Z,101137.38
2023-07-19T09:45:07.807Z,101141.13
2023-07-19T09:47:38.508Z,101125.16
2023-07-19T09:50:08.126Z,101132.88
2023-07-19T09:52:39.428Z,101145.16
2023-07-19T09:55:09.144Z,101148.66
2023-07-19T09:57:39.378Z,101145.22
2023-07-19T10:00:08.907Z,101149.16
2023-07-19T10:02:36.092Z,101145.00
2023-07-19T10:05:09.265Z,101130.94
2023-07-19T10:07:51.009Z,101130.34
2023-07-19T10:10:21.638Z,101147.66
2023-07-19T10:12:50.228Z,101134.81
2023-07-19T10:15:22.221Z,101129.16
2023-07-19T10:18:00.036Z,101136.41
2023-07-19T10:20:30.871Z,101124.81
2023-07-19T10:23:06.445Z,101131.53
2023-07-19T10:25:36.164Z,101149.97
2023-07-19T10:28:10.360Z,101141.34
2023-07-19T10:30:46.453Z,101140.44
2023-07-19T10:33:16.803Z,101152.06
2023-07-19T10:35:44.811Z,101156.13
2023-07-19T10:38:26.084Z,101154.63
2023-07-19T10:41:04.202Z,101148.81
2023-07-19T10:46:05.966Z,101146.47
2023-07-19T10:48:36.168Z,101134.34
2023-07-19T10:51:10.558Z,101138.69
2023-07-19T10:53:43.194Z,101155.56
2023-07-19T10:56:10.515Z,101149.28
2023-07-19T10:58:37.866Z,101140.34
2023-07-19T11:01:05.613Z,101141.75
2023-07-19T11:03:34.191Z,101136.59
2023-07-19T11:06:02.166Z,101124.97
2023-07-19T11:08:30.589Z,101128.59
2023-07-19T11:10:58.654Z,101135.28
2023-07-19T11:13:27.632Z,101128.88
2023-07-19T11:15:56.507Z,101130.28
2023-07-19T11:18:44.018Z,101132.91
2023-07-19T11:21:11.989Z,101121.53
2023-07-19T11:23:42.881Z,101142.03
2023-07-19T11:26:16.875Z,101144.06
2023-07-19T11:28:48.588Z,101133.13
2023-07-19T11:31:35.184Z,101143.09
2023-07-19T11:34:07.143Z,101126.69
2023-07-19T11:36:35.566Z,101128.03
2023-07-19T11:39:03.601Z,101135.19
2023-07-19T11:41:32.463Z,101126.69
2023-07-19T11:43:59.969Z,101137.09
2023-07-19T11:46:27.290Z,101133.41
2023-07-19T11:48:54.730Z,101138.13
2023-07-19T11:51:22.711Z,101138.16
2023-07-19T11:53:50.335Z,101129.66
2023-07-19T11:56:18.473Z,101124.75
2023-07-19T11:58:46.928Z,101130.88
2023-07-19T12:01:15.108Z,101125.97
2023-07-19T12:03:43.834Z,101116.53
2023-07-19T12:06:12.255Z,101113.03
2023-07-19T12:08:39.828Z,101123.69
2023-07-19T12:11:07.456Z,101111.53
2023-07-19T12:13:35.930Z,101113.16
2023-07-19T12:16:03.755Z,101110.38
2023-07-19T12:18:31.341Z,101112.28
2023-07-19T12:20:58.770Z,101113.28
2023-07-19T12:25:56.402Z,101111.25
2023-07-19T12:28:24.120Z,101104.88
2023-07-19T12:30:51.812Z,101123.56
2023-07-19T12:33:19.450Z,101117.06
2023-07-19T12:35:48.105Z,101112.66
2023-07-19T12:38:16.249Z,101102.47
2023-07-19T12:40:44.519Z,101106.00
2023-07-19T12:43:11.980Z,101101.41
2023-07-19T12:45:39.344Z,101104.22
2023-07-19T12:48:06.776Z,101093.22
2023-07-19T12:50:34.184Z,101097.59
2023-07-19T12:53:01.535Z,101095.44
2023-07-19T12:55:28.926Z,101090.03
2023-07-19T12:57:57.061Z,101093.28
2023-07-19T13:00:24.551Z,101100.00
2023-07-19T13:02:52.429Z,101091.84
2023-07-19T13:05:20.055Z,101089.03
2023-07-19T13:07:47.424Z,101087.31
2023-07-19T13:10:15.601Z,101083.19
2023-07-19T13:12:43.070Z,101084.06
2023-07-19T13:15:11.037Z,101091.84
2023-07-19T13:17:39.453Z,101098.06
2023-07-19T13:20:10.636Z,101088.94
2023-07-19T13:22:38.434Z,101082.47
2023-07-19T13:25:07.031Z,101089.09
2023-07-19T13:27:36.126Z,101076.38
2023-07-19T13:30:07.738Z,101083.69
2023-07-19T13:32:36.729Z,101072.38
2023-07-19T13:35:04.548Z,101083.63
2023-07-19T13:40:02.174Z,101081.97
2023-07-19T13:42:33.698Z,101082.75
2023-07-19T13:45:07.100Z,101082.91
2023-07-19T13:47:34.642Z,101079.47
2023-07-19T13:50:02.181Z,101069.69
2023-07-19T13:52:29.512Z,101065.28
2023-07-19T13:54:56.903Z,101081.38
2023-07-19T13:57:24.726Z,101077.75
2023-07-19T13:59:52.660Z,101076.13
2023-07-19T14:02:27.134Z,101075.75
2023-07-19T14:04:56.160Z,101082.97
2023-07-19T14:07:24.129Z,101074.19
2023-07-19T14:09:52.388Z,101075.50
2023-07-19T14:12:20.080Z,101082.00
2023-07-19T14:14:48.804Z,101079.66
2023-07-19T14:17:16.196Z,101066.06
2023-07-19T14:19:43.568Z,101084.50
2023-07-19T14:22:10.843Z,101072.69
2023-07-19T14:24:41.240Z,101078.03
2023-07-19T14:27:10.721Z,101070.19
2023-07-19T14:29:38.118Z,101064.19
2023-07-19T14:32:06.142Z,101072.72
2023-07-19T14:34:38.803Z,101064.13
2023-07-19T14:37:07.224Z,101060.97
2023-07-19T14:39:34.525Z,101060.66
2023-07-19T14:42:02.097Z,101057.56
2023-07-19T14:44:29.544Z,101061.88
2023-07-19T14:46:58.476Z,101063.06
2023-07-19T14:49:27.226Z,101051.50
2023-07-19T14:51:54.662Z,101057.97
2023-07-19T14:54:21.962Z,101063.19
2023-07-19T14:56:50.237Z,101065.13
2023-07-19T14:59:17.647Z,101061.38
2023-07-19T15:01:44.938Z,101055.06
2023-07-19T15:04:13.609Z,101056.34
2023-07-19T15:06:41.061Z,101064.38
2023-07-19T15:09:08.463Z,101059.91
2023-07-19T15:11:35.888Z,101062.38
2023-07-19T15:14:03.664Z,101064.69
2023-07-19T15:16:32.749Z,101063.09
2023-07-19T15:19:00.351Z,101056.19
2023-07-19T15:21:27.777Z,101061.53
2023-07-19T15:23:55.099Z,101055.41
2023-07-19T15:26:32.789Z,101054.56
2023-07-19T15:29:02.097Z,101048.22
2023-07-19T15:31:30.141Z,101055.88
2023-07-19T15:33:57.570Z,101053.00
2023-07-19T15:36:25.084Z,101054.06
2023-07-19T15:38:55.624Z,101050.34
2023-07-19T15:41:24.277Z,101070.00
2023-07-19T15:43:52.067Z,101055.91
2023-07-19T15:46:19.488Z,101055.59
2023-07-19T15:48:47.633Z,101050.34
2023-07-19T15:51:14.940Z,101046.31
2023-07-19T15:53:42.488Z,101049.22
2023-07-19T15:56:10.667Z,101047.91
2023-07-19T15:58:38.498Z,101032.31
2023-07-19T16:01:08.892Z,101049.66
2023-07-19T16:03:36.745Z,101038.41
2023-07-19T16:06:04.600Z,101035.63
2023-07-19T16:08:32.360Z,101034.56
2023-07-19T16:11:00.226Z,101030.56
2023-07-19T16:13:27.564Z,101030.19
2023-07-19T16:15:55.074Z,101029.78
2023-07-19T16:18:22.579Z,101028.56
2023-07-19T16:20:49.836Z,101020.13
2023-07-19T16:23:17.336Z,101020.97
2023-07-19T16:25:44.873Z,101026.56
2023-07-19T16:28:12.306Z,101030.94
2023-07-19T16:30:40.079Z,101040.41
2023-07-19T16:33:07.394Z,101030.78
2023-07-19T16:35:35.501Z,101031.13
2023-07-19T16:38:02.850Z,101022.25
2023-07-19T16:40:30.093Z,101015.84
2023-07-19T16:42:57.745Z,101021.91
2023-07-19T16:45:25.516Z,101012.00
2023-07-19T16:47:59.562Z,101016.41
2023-07-19T16:50:27.428Z,101019.16
2023-07-19T16:53:02.674Z,101016.34
2023-07-19T16:55:30.335Z,101014.38
2023-07-19T16:58:00.032Z,101009.63
2023-07-19T17:00:27.402Z,101019.13
2023-07-19T17:02:54.782Z,101017.09
2023-07-19T17:05:22.417Z,101021.97
2023-07-19T17:07:49.858Z,101028.28
2023-07-19T17:10:18.203Z,101016.59
2023-07-19T17:12:45.588Z,101018.25
2023-07-19T17:15:13.038Z,101010.09
2023-07-19T17:17:40.505Z,101005.69
2023-07-19T17:20:08.589Z,101000.81
2023-07-19T17:22:35.933Z,100999.78
2023-07-19T17:25:03.673Z,100997.50
2023-07-19T17:27:31.039Z,101009.47
2023-07-19T17:29:58.683Z,101000.50
2023-07-19T17:32:26.171Z,100997.19
2023-07-19T17:34:53.620Z,101001.63
2023-07-19T17:37:20.958Z,100995.94
2023-07-19T17:39:49.128Z,100994.50
2023-07-19T17:42:16.796Z,100998.84
2023-07-19T17:44:44.104Z,100999.31
2023-07-19T17:47:12.138Z,100999.03
2023-07-19T17:49:39.875Z,101003.94
2023-07-19T17:52:08.586Z,101019.22
2023-07-19T17:54:36.174Z,101009.44
2023-07-19T17:57:03.905Z,101027.94
2023-07-19T17:59:31.241Z,101012.06
2023-07-19T18:01:58.694Z,101009.41
2023-07-19T18:04:26.081Z,101025.84
2023-07-19T18:06:53.497Z,101026.09
2023-07-19T18:09:20.860Z,101017.16
2023-07-19T18:11:48.252Z,101023.19
2023-07-19T18:14:15.627Z,101026.81
2023-07-19T18:16:43.242Z,101028.16
2023-07-19T18:19:10.558Z,101032.03
2023-07-19T18:21:41.034Z,101024.66
2023-07-19T18:24:10.358Z,101027.47
2023-07-19T18:26:37.654Z,101021.03
2023-07-19T18:29:05.025Z,101031.16
2023-07-19T18:31:32.432Z,101046.44
2023-07-19T18:33:59.742Z,101034.34
2023-07-19T18:36:27.181Z,101030.53
2023-07-19T18:38:55.862Z,101033.72
2023-07-19T18:41:24.150Z,101045.19
2023-07-19T18:43:51.681Z,101044.66
2023-07-19T18:46:19.418Z,101040.53
2023-07-19T18:48:47.036Z,101041.06
2023-07-19T18:51:14.386Z,101041.53
2023-07-19T18:53:48.295Z,101042.09
2023-07-19T18:56:15.764Z,101042.09
2023-07-19T18:58:43.147Z,101053.25
2023-07-19T19:01:10.610Z,101049.13
2023-07-19T19:03:37.979Z,101059.34
2023-07-19T19:06:05.385Z,101053.13
2023-07-19T19:08:35.512Z,101047.56
2023-07-19T19:11:02.763Z,101043.59
2023-07-19T19:13:30.068Z,101055.94
2023-07-19T19:16:00.792Z,101047.72
2023-07-19T19:18:28.882Z,101055.50
2023-07-19T19:20:56.208Z,101054.38
2023-07-19T19:23:23.931Z,101062.28
2023-07-19T19:25:51.214Z,101068.34
2023-07-19T19:28:18.836Z,101069.09
2023-07-19T19:30:47.366Z,101061.94
2023-07-19T19:33:14.950Z,101067.38
2023-07-19T19:35:42.497Z,101072.53
2023-07-19T19:38:09.885Z,101072.09
2023-07-19T19:40:37.167Z,101086.56
2023-07-19T19:43:04.392Z,101085.47
2023-07-19T19:45:31.718Z,101090.28
2023-07-19T19:47:59.049Z,101088.97
2023-07-19T19:50:27.868Z,101092.84
2023-07-19T19:53:08.677Z,101094.94
2023-07-19T19:58:08.454Z,101095.47
2023-07-19T20:00:36.094Z,101092.69
2023-07-19T20:08:04.770Z,101099.47
2023-07-19T20:10:32.091Z,101107.53
2023-07-19T20:13:00.036Z,101104.94
2023-07-19T20:15:27.580Z,101096.81
2023-07-19T20:18:18.582Z,101103.44
2023-07-19T20:20:42.172Z,101103.69
2023-07-19T20:23:09.865Z,101116.28
2023-07-19T20:25:53.845Z,101108.47
2023-07-19T20:28:24.529Z,101108.56
2023-07-19T20:30:52.759Z,101110.66
2023-07-19T20:33:20.423Z,101113.97
2023-07-19T20:43:18.583Z,101116.28
2023-07-19T20:45:46.058Z,101117.38
2023-07-19T20:48:13.404Z,101113.63
2023-07-19T20:50:40.893Z,101123.66
2023-07-19T20:53:08.283Z,101123.47
2023-07-19T20:55:35.574Z,101120.72
2023-07-19T20:58:02.895Z,101116.31
2023-07-19T21:00:30.380Z,101121.22
2023-07-19T21:02:57.811Z,101126.22
2023-07-19T21:05:25.602Z,101116.00
2023-07-19T21:07:52.875Z,101117.88
2023-07-19T21:10:20.446Z,101109.09
2023-07-19T21:12:47.854Z,101117.41
2023-07-19T21:15:15.155Z,101113.84
2023-07-19T21:17:42.591Z,101119.00
2023-07-19T21:20:10.201Z,101112.91
2023-07-19T21:22:38.993Z,101124.22
2023-07-19T21:25:15.541Z,101123.25
2023-07-19T21:27:43.719Z,101113.47
2023-07-19T21:30:12.997Z,101122.44
2023-07-19T21:32:43.822Z,101120.91
2023-07-19T21:35:11.356Z,101112.56
2023-07-19T21:37:38.870Z,101120.81
2023-07-19T21:40:07.024Z,101121.00
2023-07-19T21:42:34.643Z,101122.63
2023-07-19T21:45:02.106Z,101125.16
2023-07-19T21:47:29.452Z,101118.84
2023-07-19T21:49:56.750Z,101132.31
2023-07-19T21:52:24.047Z,101129.56
2023-07-19T21:54:51.326Z,101131.09
2023-07-19T21:57:18.817Z,101129.28
2023-07-19T21:59:46.122Z,101135.56
2023-07-19T22:02:14.112Z,101142.81
2023-07-19T22:04:41.323Z,101133.56
2023-07-19T22:07:08.991Z,101134.31
2023-07-19T22:09:36.232Z,101151.53
2023-07-19T22:12:04.149Z,101139.22
2023-07-19T22:14:31.411Z,101134.97
2023-07-19T22:16:58.716Z,101140.97
2023-07-19T22:19:26.095Z,101135.94
2023-07-19T22:21:53.492Z,101129.06
2023-07-19T22:24:21.438Z,101139.44
2023-07-19T22:26:48.736Z,101140.13
2023-07-19T22:29:16.089Z,101144.56
2023-07-19T22:31:43.560Z,101150.41
2023-07-19T22:34:11.017Z,101148.88
2023-07-19T22:36:38.337Z,101153.59
2023-07-19T22:39:05.663Z,101154.88
2023-07-19T22:41:33.004Z,101157.69
2023-07-19T22:44:00.261Z,101156.03
2023-07-19T22:46:27.658Z,101166.06
2023-07-19T22:48:58.085Z,101161.63
2023-07-19T22:51:25.575Z,101164.00
2023-07-19T22:53:52.894Z,101167.66
2023-07-19T22:58:47.512Z,101161.63
2023-07-19T23:01:14.777Z,101169.22
2023-07-19T23:03:42.153Z,101165.69
2023-07-19T23:06:09.563Z,101167.13
2023-07-19T23:08:36.911Z,101167.13
2023-07-19T23:11:04.214Z,101170.50
2023-07-19T23:13:31.735Z,101161.09
2023-07-19T23:15:59.175Z,101169.47
2023-07-19T23:21:11.206Z,101166.59
2023-07-19T23:23:38.480Z,101174.19
2023-07-19T23:26:05.848Z,101171.47
2023-07-19T23:28:36.939Z,101164.44
2023-07-19T23:31:07.159Z,101170.38
2023-07-19T23:33:34.529Z,101164.25
2023-07-19T23:36:01.840Z,101159.09
2023-07-19T23:38:29.142Z,101164.53
2023-07-19T23:40:56.661Z,101163.16
2023-07-19T23:43:24.004Z,101153.16
2023-07-19T23:45:51.273Z,101158.84
2023-07-19T23:48:19.097Z,101152.53
2023-07-19T23:50:46.392Z,101156.03
2023-07-19T23:53:13.657Z,101150.38
2023-07-19T23:55:41.283Z,101146.84
2023-07-19T23:58:08.601Z,101156.22
